createdAt,value
2023-01-31T00:38:06.075Z,23.02
2023-01-31T00:39:05.640Z,22.41
2023-01-31T00:40:05.655Z,22.36
2023-01-31T00:41:05.714Z,22.30
2023-01-31T00:42:05.898Z,22.26
2023-01-31T00:43:06.056Z,22.27
2023-01-31T01:56:02.103Z,22.24
2023-01-31T01:57:02.182Z,22.24
2023-01-31T01:58:02.241Z,22.25
2023-01-31T01:59:02.264Z,22.23
2023-01-31T02:00:02.333Z,22.25
2023-01-31T02:01:02.456Z,22.27
2023-01-31T02:02:02.414Z,22.30
2023-01-31T02:03:02.487Z,22.27
2023-01-31T02:04:02.707Z,22.25
2023-01-31T02:05:02.547Z,22.25
2023-01-31T02:06:02.598Z,22.26
2023-01-31T02:07:02.714Z,22.25
2023-01-31T02:08:02.712Z,22.24
2023-01-31T02:09:02.851Z,22.21
2023-01-31T02:10:02.869Z,22.25
2023-01-31T02:11:02.928Z,22.26
2023-01-31T02:12:02.933Z,22.27
2023-01-31T02:13:03.001Z,22.25
2023-01-31T02:14:03.011Z,22.27
2023-01-31T02:15:03.089Z,22.27
2023-01-31T02:16:03.158Z,22.27
2023-01-31T02:17:03.217Z,22.26
2023-01-31T02:18:03.264Z,22.26
2023-01-31T02:19:03.284Z,22.28
2023-01-31T02:20:03.384Z,22.25
2023-01-31T02:21:03.411Z,22.25
2023-01-31T02:22:03.479Z,22.23
2023-01-31T02:23:03.524Z,22.24
2023-01-31T02:24:03.565Z,22.28
2023-01-31T02:25:03.624Z,22.26
2023-01-31T02:26:03.698Z,22.26
2023-01-31T02:27:03.764Z,22.26
2023-01-31T02:28:03.760Z,22.24
2023-01-31T06:34:34.558Z,25.47
2023-01-31T06:45:34.968Z,28.78
2023-01-31T06:50:16.136Z,29.84
2023-01-31T06:55:43.116Z,32.21
2023-01-31T06:56:42.923Z,31.61
2023-01-31T06:57:43.145Z,31.71
2023-01-31T06:58:43.514Z,31.79
2023-01-31T06:59:42.941Z,32.00
2023-01-31T07:00:43.872Z,32.03
2023-01-31T07:01:43.062Z,31.97
2023-01-31T07:02:43.060Z,31.91
2023-01-31T07:03:43.037Z,31.87
2023-01-31T07:04:43.294Z,32.15
2023-01-31T07:05:43.145Z,31.93
2023-01-31T07:06:43.168Z,32.53
2023-01-31T07:10:45.678Z,30.61
2023-01-31T07:11:45.687Z,28.92
2023-01-31T07:12:46.158Z,28.14
2023-01-31T07:13:46.599Z,27.69
2023-01-31T07:14:45.672Z,27.15
2023-01-31T07:15:45.666Z,27.02
2023-01-31T07:16:45.710Z,26.49
2023-01-31T07:17:45.696Z,26.23
2023-01-31T07:18:45.707Z,25.87
2023-01-31T07:19:45.704Z,25.60
2023-01-31T07:20:45.891Z,25.71
2023-01-31T07:21:45.948Z,25.40
2023-01-31T07:22:48.458Z,25.30
2023-01-31T07:23:46.890Z,25.21
2023-01-31T07:24:46.324Z,25.22
2023-01-31T07:30:23.936Z,25.69
2023-01-31T07:58:28.642Z,24.90
2023-01-31T07:59:29.818Z,24.39
2023-01-31T08:00:28.182Z,24.30
2023-01-31T08:03:21.233Z,24.62
2023-01-31T08:17:24.838Z,24.03
2023-01-31T08:32:44.241Z,28.03
2023-01-31T08:35:06.055Z,27.19
2023-01-31T08:39:02.759Z,24.75
2023-01-31T09:11:19.774Z,23.87
2023-01-31T09:12:19.289Z,23.30
2023-01-31T09:13:18.725Z,23.26
2023-01-31T09:14:18.782Z,23.13
2023-01-31T09:15:19.907Z,23.23
2023-01-31T09:16:18.964Z,23.03
2023-01-31T09:17:18.991Z,22.99
2023-01-31T09:18:18.925Z,22.96
2023-01-31T09:19:18.877Z,22.97
2023-01-31T09:20:19.114Z,23.09
2023-01-31T09:33:30.936Z,24.97
2023-01-31T09:34:30.758Z,24.88
2023-01-31T09:35:30.656Z,24.08
2023-01-31T09:36:30.798Z,22.41
2023-01-31T09:37:30.747Z,21.49
2023-01-31T09:38:33.025Z,20.77
2023-01-31T09:40:49.411Z,20.34
2023-01-31T09:41:50.632Z,20.28
2023-01-31T09:43:03.295Z,20.28
2023-01-31T09:43:50.278Z,20.30
2023-01-31T09:44:49.261Z,20.28
2023-01-31T09:45:48.928Z,20.35
2023-01-31T09:46:48.865Z,20.46
2023-01-31T09:47:49.181Z,20.47
2023-01-31T09:48:49.075Z,21.89
2023-01-31T09:49:48.889Z,23.08
2023-01-31T11:21:45.042Z,22.66
2023-01-31T13:11:06.552Z,23.56
2023-01-31T13:21:37.388Z,26.07
2023-01-31T13:22:34.851Z,25.57
2023-01-31T13:23:35.613Z,25.58
2023-01-31T13:24:34.766Z,25.66
2023-01-31T13:25:34.700Z,24.49
2023-01-31T13:26:34.745Z,24.09
2023-01-31T13:27:34.695Z,24.10
2023-01-31T13:28:34.691Z,22.10
2023-01-31T13:29:34.686Z,20.04
2023-01-31T13:30:34.794Z,19.91
2023-01-31T13:31:34.865Z,20.59
2023-01-31T14:29:17.645Z,22.47
2023-01-31T14:30:17.502Z,22.27
2023-01-31T14:31:18.414Z,22.23
2023-01-31T14:34:45.981Z,22.88
2023-01-31T14:35:47.648Z,22.38
2023-01-31T14:36:45.777Z,22.37
2023-01-31T14:37:45.952Z,22.40
2023-01-31T14:38:46.891Z,22.47
2023-01-31T14:39:46.069Z,22.36
2023-01-31T14:40:46.059Z,22.28
2023-01-31T14:41:45.995Z,22.35
2023-01-31T14:42:46.053Z,22.34
2023-01-31T14:43:46.144Z,22.19
2023-01-31T14:44:46.275Z,21.89
2023-01-31T14:47:07.824Z,22.02
2023-01-31T14:48:05.204Z,21.99
2023-01-31T14:50:24.405Z,22.04
2023-01-31T14:51:25.168Z,21.97
2023-01-31T14:52:24.041Z,21.96
2023-01-31T14:53:23.991Z,21.84
2023-01-31T14:54:23.924Z,21.84
2023-01-31T14:55:24.146Z,21.87
2023-01-31T14:56:23.905Z,21.96
2023-01-31T14:57:23.917Z,21.54
2023-01-31T14:59:43.243Z,21.69
2023-01-31T15:00:43.302Z,21.64
2023-01-31T15:01:42.837Z,21.63
2023-01-31T15:02:43.948Z,21.65
2023-01-31T15:03:42.747Z,21.62
2023-01-31T15:04:42.729Z,21.73
2023-01-31T15:05:42.836Z,21.67
2023-01-31T15:06:42.684Z,21.76
2023-01-31T15:13:16.306Z,21.53
2023-01-31T15:14:33.038Z,20.85
2023-01-31T15:15:17.263Z,21.09
2023-01-31T15:46:18.605Z,31.68
2023-01-31T15:47:18.563Z,32.31
2023-01-31T15:57:58.809Z,30.39
2023-01-31T15:58:59.136Z,30.07
2023-01-31T15:59:58.941Z,28.43
2023-01-31T16:00:59.034Z,28.15
2023-01-31T16:15:04.373Z,27.02
2023-01-31T16:16:04.375Z,26.29
2023-01-31T16:17:04.606Z,26.27
2023-01-31T16:18:04.176Z,26.26
2023-01-31T16:19:04.060Z,26.18
2023-01-31T16:22:06.898Z,26.57
2023-01-31T16:23:06.492Z,25.98
2023-01-31T16:24:06.137Z,25.93
2023-01-31T16:26:25.219Z,25.81
2023-01-31T16:27:25.170Z,25.44
2023-01-31T16:28:25.186Z,25.32
2023-01-31T16:29:24.939Z,25.40
2023-01-31T16:30:25.210Z,25.43
2023-01-31T16:31:24.991Z,25.39
2023-01-31T16:32:24.843Z,25.45
2023-01-31T16:33:24.905Z,25.44
2023-01-31T16:34:25.212Z,25.45
2023-01-31T16:35:24.891Z,25.46
2023-01-31T16:36:24.873Z,25.36
2023-01-31T16:37:24.847Z,25.48
2023-01-31T16:49:00.113Z,25.34
2023-01-31T16:49:59.963Z,25.26
2023-01-31T16:50:59.884Z,25.19
2023-01-31T16:51:59.836Z,24.76
2023-01-31T16:52:59.873Z,24.52
2023-01-31T16:53:59.849Z,24.55
2023-01-31T16:54:59.888Z,24.47
2023-01-31T16:55:59.958Z,24.61
2023-01-31T16:56:59.936Z,24.53
2023-01-31T16:57:59.948Z,24.48
2023-01-31T16:58:59.949Z,24.31
2023-01-31T17:00:00.037Z,25.38
2023-01-31T17:01:00.112Z,24.63
2023-01-31T17:01:59.982Z,24.48
2023-01-31T17:03:00.036Z,24.11
2023-01-31T17:04:00.101Z,24.13
2023-01-31T17:09:22.220Z,24.36
2023-01-31T17:10:22.562Z,24.47
2023-01-31T17:12:22.269Z,24.34
2023-01-31T17:20:22.398Z,23.87
2023-01-31T17:49:55.812Z,24.11
2023-01-31T17:50:55.732Z,24.04
2023-01-31T18:09:42.917Z,25.11
2023-01-31T18:10:43.130Z,24.43
2023-01-31T18:11:42.673Z,24.37
2023-01-31T18:12:42.539Z,24.26
2023-01-31T18:18:01.504Z,24.28
2023-01-31T18:44:58.518Z,24.52
2023-01-31T18:55:13.686Z,25.73
2023-01-31T18:56:13.362Z,25.38
2023-01-31T19:43:47.516Z,24.12
2023-01-31T19:44:47.548Z,24.05
2023-01-31T19:45:47.527Z,24.01
2023-01-31T19:46:47.445Z,23.98
2023-01-31T19:47:59.069Z,23.98
2023-01-31T19:50:06.242Z,24.48
2023-01-31T19:51:07.205Z,24.04
2023-01-31T19:52:06.836Z,23.96
2023-01-31T19:54:27.154Z,24.13
2023-01-31T19:56:43.689Z,24.07
2023-01-31T19:57:43.989Z,23.93
2023-01-31T19:58:43.750Z,23.86
2023-01-31T19:59:43.664Z,23.87
2023-01-31T20:00:43.705Z,23.91
2023-01-31T20:01:43.691Z,23.85
2023-01-31T20:02:43.719Z,23.79
2023-01-31T20:03:43.792Z,23.84
2023-01-31T20:04:43.823Z,23.86
2023-01-31T20:05:43.721Z,23.88
2023-01-31T20:06:44.755Z,23.91
2023-01-31T20:07:43.736Z,23.87
2023-01-31T20:08:43.835Z,23.88
2023-01-31T20:09:44.749Z,23.88
2023-01-31T20:10:43.800Z,23.84
2023-01-31T20:13:03.067Z,24.02
2023-01-31T20:14:03.552Z,23.92
2023-01-31T20:15:04.354Z,23.86
2023-01-31T20:16:03.636Z,23.87
2023-01-31T20:17:02.683Z,23.90
2023-01-31T20:18:03.703Z,23.86
2023-01-31T20:19:03.745Z,23.83
2023-01-31T20:20:02.932Z,23.75
2023-01-31T20:21:03.009Z,23.74
2023-01-31T20:29:33.561Z,24.83
2023-01-31T20:31:52.690Z,24.21
2023-01-31T20:32:52.451Z,24.13
2023-01-31T20:33:52.743Z,24.10
2023-01-31T20:34:52.698Z,24.06
2023-01-31T20:35:52.485Z,24.08
2023-01-31T20:36:52.523Z,24.07
2023-01-31T20:37:52.440Z,23.99
2023-01-31T20:38:53.144Z,24.04
2023-01-31T20:39:52.478Z,24.06
2023-01-31T20:40:52.694Z,23.99
2023-01-31T20:41:52.604Z,23.91
2023-01-31T20:51:11.421Z,23.97
2023-01-31T20:58:49.565Z,24.20
2023-01-31T21:01:09.252Z,24.39
2023-01-31T21:02:08.737Z,24.19
2023-01-31T21:03:08.361Z,24.17
2023-01-31T21:04:08.421Z,24.18
2023-01-31T21:05:09.298Z,24.24
2023-01-31T21:06:08.407Z,24.43
2023-01-31T21:07:09.544Z,25.14
2023-01-31T21:08:09.412Z,25.03
2023-01-31T21:09:08.522Z,25.00
2023-01-31T21:18:27.086Z,24.01
2023-01-31T22:10:12.408Z,24.69
2023-01-31T22:11:12.331Z,24.13
2023-01-31T22:12:12.209Z,24.09
2023-01-31T22:13:12.020Z,24.13
2023-01-31T22:15:12.101Z,24.10
2023-01-31T22:16:12.200Z,24.08
2023-01-31T22:17:12.040Z,24.10
2023-01-31T22:18:12.305Z,24.08
2023-01-31T22:19:12.185Z,24.08
2023-01-31T22:20:12.252Z,24.05
2023-01-31T22:21:12.391Z,24.08
2023-01-31T22:22:12.035Z,24.06
2023-01-31T23:53:58.844Z,23.91
2023-01-31T23:58:17.412Z,23.46
2023-01-31T23:59:17.337Z,23.39
